OOCL Nagoya — VRFX8 — position and weather

sailwx.info

Track history (hours):
 
Tides and Currents Weather Stations Pressure Air Temp Water Temp Dewpoint Dewpoint Depression Visibility Wind Speed Wind Dir Waves Ship Positions

OOCL Nagoya

Last reported at 2014-Sep-28 13:30 UTC. Time now 2014-Oct-01 14:29 UTC.
Position N 35°37' E 139°47'.

Length 260 m; draft 9.3 m.

Type: Cargo ship. MMSI: 477627900.

Date/timePositionNaut miles runAvg speedWind from/ knotsBaromVisibWave heightAir tempDewpointWater temp
2014-Sep-28 13:30N 35°37' E 139°47'4 4.6
2014-Sep-28 12:33N 35°33' E 139°50'10 9.6
2014-Sep-28 11:34N 35°27' E 139°42'1 0.9
2014-Sep-28 10:32N 35°26' E 139°41'0 0.0
2014-Sep-28 09:32N 35°26' E 139°41'0 0.0
2014-Sep-28 08:32N 35°26' E 139°41'0 0.0
2014-Sep-28 07:32N 35°26' E 139°41'0 0.0
2014-Sep-28 06:32N 35°26' E 139°41'0 0.0
2014-Sep-28 05:32N 35°26' E 139°41'0 0.0
2014-Sep-28 04:32N 35°26' E 139°41'1 0.7
2014-Sep-28 03:34N 35°27' E 139°41'9 9.3
2014-Sep-28 02:33N 35°18' E 139°45'1010.0
2014-Sep-28 01:33N 35°08' E 139°46'24813.5
2014-Sep-27 07:09N 33°51' E 134°59'1117.9
2014-Sep-27 06:33N 34°02' E 134°59'1716.5
2014-Sep-27 05:33N 34°19' E 134°59'2019.9
2014-Sep-27 04:34N 34°34' E 135°15'6 4.9
2014-Sep-27 03:25N 34°39' E 135°15'0 0.0
2014-Sep-27 02:31N 34°39' E 135°15'0 0.0
2014-Sep-27 01:31N 34°39' E 135°15'0 0.0
2014-Sep-27 00:31N 34°39' E 135°15'0 0.0
2014-Sep-26 23:25N 34°39' E 135°15'0 0.0
2014-Sep-26 22:31N 34°39' E 135°15'0 0.0
2014-Sep-26 21:31N 34°39' E 135°15'0 0.0
2014-Sep-26 20:25N 34°39' E 135°15'0 0.0
2014-Sep-26 19:31N 34°39' E 135°15'0 0.0
2014-Sep-26 18:31N 34°39' E 135°15'0 0.0
2014-Sep-26 17:25N 34°39' E 135°15'0 0.0
2014-Sep-26 16:31N 34°39' E 135°15'0 0.0
2014-Sep-26 15:31N 34°39' E 135°15'0 0.0
2014-Sep-26 14:31N 34°39' E 135°15'0 0.0
2014-Sep-26 13:31N 34°39' E 135°15'0 0.0
2014-Sep-26 12:31N 34°39' E 135°15'3 3.1
2014-Sep-26 11:33N 34°38' E 135°18'7 3.5
2014-Sep-26 09:33N 34°38' E 135°26'0 0.0
2014-Sep-26 08:33N 34°38' E 135°26'0 0.0
2014-Sep-26 06:09N 34°38' E 135°26'0 0.0
2014-Sep-26 02:21N 34°38' E 135°26'0 0.0
2014-Sep-26 01:33N 34°38' E 135°26'0 0.0
2014-Sep-26 00:27N 34°38' E 135°26'0 0.2
2014-Sep-25 23:33N 34°38' E 135°27'9 9.4
2014-Sep-25 22:33N 34°33' E 135°17'1919.0
2014-Sep-25 21:33N 34°19' E 135°01'1313.1
2014-Sep-25 20:34N 34°07' E 134°59'1413.9
2014-Sep-25 19:33N 33°53' E 134°55'77317.7
2014-Sep-24 00:00N 26°24' E 122°48'21216.9 040 / 111008.0 5.4 1.027.026.0
2014-Sep-23 11:24N 24°40' E 119°23'1618.3
2014-Sep-23 10:33N 24°32' E 119°08'1918.6
2014-Sep-23 09:32N 24°23' E 118°50'1817.8
2014-Sep-23 08:33N 24°16' E 118°32'1615.9
2014-Sep-23 07:33N 24°17' E 118°15'1413.6
2014-Sep-23 06:33N 24°26' E 118°03'5 4.6
2014-Sep-23 05:29N 24°31' E 118°05'0 0.0
2014-Sep-23 04:29N 24°31' E 118°05'0 0.0
2014-Sep-23 03:32N 24°31' E 118°05'0 0.0
2014-Sep-23 02:29N 24°31' E 118°05'0 0.0
2014-Sep-23 01:32N 24°31' E 118°05'0 0.0
2014-Sep-23 00:29N 24°31' E 118°05'0 0.0
2014-Sep-22 23:32N 24°31' E 118°05'0 0.0
2014-Sep-22 22:29N 24°31' E 118°05'0 0.0
2014-Sep-22 21:32N 24°31' E 118°05'0 0.0
2014-Sep-22 20:33N 24°31' E 118°05'8 7.7
2014-Sep-22 19:33N 24°23' E 118°07'1110.9
2014-Sep-22 18:33N 24°15' E 118°15'1414.5
2014-Sep-22 17:33N 24°01' E 118°16'1717.4
2014-Sep-22 16:33N 23°48' E 118°03'1817.7
2014-Sep-22 15:33N 23°35' E 117°50'1917.8
2014-Sep-22 14:31N 23°23' E 117°35'4020.1
2014-Sep-22 12:32N 22°58' E 117°01'16418.0
2014-Sep-22 03:24N 22°13' E 114°10'8 8.7
2014-Sep-22 02:27N 22°20' E 114°07'0 0.0
2014-Sep-21 04:30N 22°20' E 114°07'3 1.4
2014-Sep-21 02:07N 22°17' E 114°05'0 0.0
2014-Sep-21 01:31N 22°17' E 114°05'0 0.0
2014-Sep-20 21:13N 22°17' E 114°05'1 0.1
2014-Sep-20 03:29N 22°18' E 114°06'11 9.9
2014-Sep-20 02:24N 22°22' E 113°55'6 6.3
2014-Sep-20 01:30N 22°27' E 113°54'0 0.3
2014-Sep-20 00:30N 22°28' E 113°54'0 0.0
2014-Sep-19 23:33N 22°28' E 113°54'0 0.0
2014-Sep-19 22:33N 22°28' E 113°54'0 0.0
2014-Sep-19 21:27N 22°28' E 113°54'0 0.0
2014-Sep-19 20:33N 22°28' E 113°54'0 0.0
2014-Sep-19 19:30N 22°28' E 113°54'0 0.0
2014-Sep-19 18:30N 22°28' E 113°54'0 0.0
2014-Sep-19 17:30N 22°28' E 113°54'0 0.0
2014-Sep-19 16:30N 22°28' E 113°54'0 0.0
2014-Sep-19 15:30N 22°28' E 113°54'0 0.0
2014-Sep-19 14:24N 22°28' E 113°54'0 0.0
2014-Sep-19 13:30N 22°28' E 113°54'0 0.0
2014-Sep-19 12:30N 22°28' E 113°54'0 0.0
2014-Sep-19 11:33N 22°28' E 113°54'0 0.0
2014-Sep-19 10:33N 22°28' E 113°54'0 0.0
2014-Sep-19 09:24N 22°28' E 113°54'4 4.3
2014-Sep-19 08:34N 22°24' E 113°54'11 9.8
2014-Sep-19 07:26N 22°20' E 114°05'  
Track history (hours):
 
Tides and Currents Weather Stations Pressure Air Temp Water Temp Dewpoint Dewpoint Depression Visibility Wind Speed Wind Dir Waves Ship Positions

OOCL Nagoya

Last reported at 2014-Sep-28 13:30 UTC. Time now 2014-Oct-01 14:29 UTC.
Position N 35°37' E 139°47'.

Length 260 m; draft 9.3 m.

Type: Cargo ship. MMSI: 477627900.

Date/timePositionNaut miles runAvg speedWind from/ knotsBaromVisibWave heightAir tempDewpointWater temp
2014-Sep-28 13:30N 35°37' E 139°47'4 4.6
2014-Sep-28 12:33N 35°33' E 139°50'10 9.6
2014-Sep-28 11:34N 35°27' E 139°42'1 0.9
2014-Sep-28 10:32N 35°26' E 139°41'0 0.0
2014-Sep-28 09:32N 35°26' E 139°41'0 0.0
2014-Sep-28 08:32N 35°26' E 139°41'0 0.0
2014-Sep-28 07:32N 35°26' E 139°41'0 0.0
2014-Sep-28 06:32N 35°26' E 139°41'0 0.0
2014-Sep-28 05:32N 35°26' E 139°41'0 0.0
2014-Sep-28 04:32N 35°26' E 139°41'1 0.7
2014-Sep-28 03:34N 35°27' E 139°41'9 9.3
2014-Sep-28 02:33N 35°18' E 139°45'1010.0
2014-Sep-28 01:33N 35°08' E 139°46'24813.5
2014-Sep-27 07:09N 33°51' E 134°59'1117.9
2014-Sep-27 06:33N 34°02' E 134°59'1716.5
2014-Sep-27 05:33N 34°19' E 134°59'2019.9
2014-Sep-27 04:34N 34°34' E 135°15'6 4.9
2014-Sep-27 03:25N 34°39' E 135°15'0 0.0
2014-Sep-27 02:31N 34°39' E 135°15'0 0.0
2014-Sep-27 01:31N 34°39' E 135°15'0 0.0
2014-Sep-27 00:31N 34°39' E 135°15'0 0.0
2014-Sep-26 23:25N 34°39' E 135°15'0 0.0
2014-Sep-26 22:31N 34°39' E 135°15'0 0.0
2014-Sep-26 21:31N 34°39' E 135°15'0 0.0
2014-Sep-26 20:25N 34°39' E 135°15'0 0.0
2014-Sep-26 19:31N 34°39' E 135°15'0 0.0
2014-Sep-26 18:31N 34°39' E 135°15'0 0.0
2014-Sep-26 17:25N 34°39' E 135°15'0 0.0
2014-Sep-26 16:31N 34°39' E 135°15'0 0.0
2014-Sep-26 15:31N 34°39' E 135°15'0 0.0
2014-Sep-26 14:31N 34°39' E 135°15'0 0.0
2014-Sep-26 13:31N 34°39' E 135°15'0 0.0
2014-Sep-26 12:31N 34°39' E 135°15'3 3.1
2014-Sep-26 11:33N 34°38' E 135°18'7 3.5
2014-Sep-26 09:33N 34°38' E 135°26'0 0.0
2014-Sep-26 08:33N 34°38' E 135°26'0 0.0
2014-Sep-26 06:09N 34°38' E 135°26'0 0.0
2014-Sep-26 02:21N 34°38' E 135°26'0 0.0
2014-Sep-26 01:33N 34°38' E 135°26'0 0.0
2014-Sep-26 00:27N 34°38' E 135°26'0 0.2
2014-Sep-25 23:33N 34°38' E 135°27'9 9.4
2014-Sep-25 22:33N 34°33' E 135°17'1919.0
2014-Sep-25 21:33N 34°19' E 135°01'1313.1
2014-Sep-25 20:34N 34°07' E 134°59'1413.9
2014-Sep-25 19:33N 33°53' E 134°55'77317.7
2014-Sep-24 00:00N 26°24' E 122°48'21216.9 040 / 111008.0 5.4 1.027.026.0
2014-Sep-23 11:24N 24°40' E 119°23'1618.3
2014-Sep-23 10:33N 24°32' E 119°08'1918.6
2014-Sep-23 09:32N 24°23' E 118°50'1817.8
2014-Sep-23 08:33N 24°16' E 118°32'1615.9
2014-Sep-23 07:33N 24°17' E 118°15'1413.6
2014-Sep-23 06:33N 24°26' E 118°03'5 4.6
2014-Sep-23 05:29N 24°31' E 118°05'0 0.0
2014-Sep-23 04:29N 24°31' E 118°05'0 0.0
2014-Sep-23 03:32N 24°31' E 118°05'0 0.0
2014-Sep-23 02:29N 24°31' E 118°05'0 0.0
2014-Sep-23 01:32N 24°31' E 118°05'0 0.0
2014-Sep-23 00:29N 24°31' E 118°05'0 0.0
2014-Sep-22 23:32N 24°31' E 118°05'0 0.0
2014-Sep-22 22:29N 24°31' E 118°05'0 0.0
2014-Sep-22 21:32N 24°31' E 118°05'0 0.0
2014-Sep-22 20:33N 24°31' E 118°05'8 7.7
2014-Sep-22 19:33N 24°23' E 118°07'1110.9
2014-Sep-22 18:33N 24°15' E 118°15'1414.5
2014-Sep-22 17:33N 24°01' E 118°16'1717.4
2014-Sep-22 16:33N 23°48' E 118°03'1817.7
2014-Sep-22 15:33N 23°35' E 117°50'1917.8
2014-Sep-22 14:31N 23°23' E 117°35'4020.1
2014-Sep-22 12:32N 22°58' E 117°01'16418.0
2014-Sep-22 03:24N 22°13' E 114°10'8 8.7
2014-Sep-22 02:27N 22°20' E 114°07'0 0.0
2014-Sep-21 04:30N 22°20' E 114°07'3 1.4
2014-Sep-21 02:07N 22°17' E 114°05'0 0.0
2014-Sep-21 01:31N 22°17' E 114°05'0 0.0
2014-Sep-20 21:13N 22°17' E 114°05'1 0.1
2014-Sep-20 03:29N 22°18' E 114°06'11 9.9
2014-Sep-20 02:24N 22°22' E 113°55'6 6.3
2014-Sep-20 01:30N 22°27' E 113°54'0 0.3
2014-Sep-20 00:30N 22°28' E 113°54'0 0.0
2014-Sep-19 23:33N 22°28' E 113°54'0 0.0
2014-Sep-19 22:33N 22°28' E 113°54'0 0.0
2014-Sep-19 21:27N 22°28' E 113°54'0 0.0
2014-Sep-19 20:33N 22°28' E 113°54'0 0.0
2014-Sep-19 19:30N 22°28' E 113°54'0 0.0
2014-Sep-19 18:30N 22°28' E 113°54'0 0.0
2014-Sep-19 17:30N 22°28' E 113°54'0 0.0
2014-Sep-19 16:30N 22°28' E 113°54'0 0.0
2014-Sep-19 15:30N 22°28' E 113°54'0 0.0
2014-Sep-19 14:24N 22°28' E 113°54'0 0.0
2014-Sep-19 13:30N 22°28' E 113°54'0 0.0
2014-Sep-19 12:30N 22°28' E 113°54'0 0.0
2014-Sep-19 11:33N 22°28' E 113°54'0 0.0
2014-Sep-19 10:33N 22°28' E 113°54'0 0.0
2014-Sep-19 09:24N 22°28' E 113°54'4 4.3
2014-Sep-19 08:34N 22°24' E 113°54'11 9.8
2014-Sep-19 07:26N 22°20' E 114°05'  

Dump ship's entire track history